createdAt,value
2019-06-01T00:00:10.950Z,17.50
2019-06-01T00:01:07.883Z,17.40
2019-06-01T00:02:13.159Z,17.40
2019-06-01T00:03:19.057Z,17.40
2019-06-01T00:04:24.089Z,17.40
2019-06-01T00:05:30.267Z,17.40
2019-06-01T00:06:35.373Z,17.30
2019-06-01T00:07:42.847Z,17.30
2019-06-01T00:08:49.335Z,17.30
2019-06-01T00:09:55.348Z,17.30
2019-06-01T00:11:00.519Z,17.30
2019-06-01T00:12:06.568Z,17.30
2019-06-01T00:13:11.673Z,17.30
2019-06-01T00:14:17.925Z,17.20
2019-06-01T00:15:23.091Z,17.20
2019-06-01T00:16:28.960Z,17.20
2019-06-01T00:17:34.033Z,17.20
2019-06-01T00:18:39.973Z,17.20
2019-06-01T00:19:46.187Z,17.20
2019-06-01T00:20:52.770Z,17.20
2019-06-01T00:21:57.896Z,17.10
2019-06-01T00:23:03.738Z,17.10
2019-06-01T00:24:08.897Z,17.10
2019-06-01T00:25:15.057Z,17.10
2019-06-01T00:26:20.688Z,17.10
2019-06-01T00:27:26.936Z,17.10
2019-06-01T00:28:32.137Z,17.10
2019-06-01T00:29:38.181Z,17.00
2019-06-01T00:30:44.007Z,17.00
2019-06-01T00:31:49.992Z,17.00
2019-06-01T00:32:55.385Z,17.00
2019-06-01T00:34:01.358Z,17.00
2019-06-01T00:35:06.951Z,17.00
2019-06-01T00:36:13.008Z,16.90
2019-06-01T00:37:18.201Z,16.90
2019-06-01T00:38:24.153Z,16.90
2019-06-01T00:39:29.559Z,16.90
2019-06-01T00:40:35.750Z,16.90
2019-06-01T00:41:41.922Z,16.80
2019-06-01T00:42:48.280Z,16.80
2019-06-01T00:43:55.023Z,16.80
2019-06-01T00:45:00.927Z,16.80
2019-06-01T00:46:06.185Z,16.80
2019-06-01T00:47:12.138Z,16.80
2019-06-01T00:48:17.513Z,16.70
2019-06-01T00:49:24.040Z,16.70
2019-06-01T00:50:29.136Z,16.70
2019-06-01T00:51:35.086Z,16.70
2019-06-01T00:52:40.279Z,16.70
2019-06-01T00:53:47.349Z,16.60
2019-06-01T00:54:53.636Z,16.60
2019-06-01T00:55:59.965Z,16.60
2019-06-01T00:57:05.448Z,16.50
2019-06-01T00:58:12.431Z,16.60
2019-06-01T00:59:18.013Z,16.50
2019-06-01T01:00:40.704Z,16.50
2019-06-01T01:01:36.576Z,16.50
2019-06-01T01:02:46.397Z,16.50
2019-06-01T01:03:54.457Z,16.50
2019-06-01T01:05:17.885Z,16.40
2019-06-01T01:06:26.174Z,16.40
2019-06-01T01:07:38.289Z,16.40
2019-06-01T01:08:47.081Z,16.40
2019-06-01T01:09:53.138Z,16.40
2019-06-01T01:10:58.348Z,16.30
2019-06-01T01:12:04.306Z,16.30
2019-06-01T01:13:12.793Z,16.30
2019-06-01T01:14:19.119Z,16.30
2019-06-01T01:15:24.294Z,16.30
2019-06-01T01:16:30.512Z,16.20
2019-06-01T01:17:35.646Z,16.20
2019-06-01T01:18:42.127Z,16.20
2019-06-01T01:19:47.666Z,16.20
2019-06-01T01:20:54.254Z,16.20
2019-06-01T01:22:00.241Z,16.20
2019-06-01T01:23:06.647Z,16.10
2019-06-01T01:24:11.753Z,16.10
2019-06-01T01:25:17.751Z,16.10
2019-06-01T01:26:23.011Z,16.10
2019-06-01T01:27:29.452Z,16.10
2019-06-01T01:28:34.932Z,16.10
2019-06-01T01:29:41.253Z,16.10
2019-06-01T01:31:02.901Z,16.10
2019-06-01T01:31:55.303Z,16.00
2019-06-01T01:33:00.600Z,16.00
2019-06-01T01:34:06.566Z,16.00
2019-06-01T01:35:11.845Z,16.00
2019-06-01T01:36:17.717Z,16.00
2019-06-01T01:37:23.095Z,16.00
2019-06-01T01:38:29.293Z,15.90
2019-06-01T01:39:34.742Z,15.90
2019-06-01T01:40:40.696Z,15.90
2019-06-01T01:41:45.751Z,15.90
2019-06-01T01:42:52.368Z,15.90
2019-06-01T01:43:58.698Z,15.90
2019-06-01T01:45:04.815Z,15.90
2019-06-01T01:46:10.287Z,15.90
2019-06-01T01:47:16.416Z,15.90
2019-06-01T01:48:22.263Z,15.90
2019-06-01T01:49:28.511Z,15.90
2019-06-01T01:50:33.798Z,15.80
2019-06-01T01:51:39.998Z,15.80
2019-06-01T01:52:45.052Z,15.80
2019-06-01T01:53:50.961Z,15.80
2019-06-01T01:54:56.819Z,15.80
2019-06-01T01:56:02.912Z,15.80
2019-06-01T01:57:07.917Z,15.70
2019-06-01T01:58:14.131Z,15.70
2019-06-01T01:59:19.207Z,15.70
2019-06-01T02:00:52.953Z,15.70
2019-06-01T02:02:00.183Z,15.70
2019-06-01T02:03:08.433Z,15.70
2019-06-01T02:04:13.643Z,15.70
2019-06-01T02:05:19.527Z,15.70
2019-06-01T02:06:24.654Z,15.70
2019-06-01T02:07:30.585Z,15.60
2019-06-01T02:08:36.058Z,15.60
2019-06-01T02:09:42.029Z,15.60
2019-06-01T02:10:47.572Z,15.60
2019-06-01T02:11:55.353Z,15.60
2019-06-01T02:13:01.843Z,15.60
2019-06-01T02:14:08.173Z,15.60
2019-06-01T02:15:13.445Z,15.50
2019-06-01T02:16:19.736Z,15.50
2019-06-01T02:17:24.837Z,15.50
2019-06-01T02:18:31.148Z,15.50
2019-06-01T02:19:36.684Z,15.50
2019-06-01T02:20:42.678Z,15.40
2019-06-01T02:21:48.105Z,15.40
2019-06-01T02:22:54.965Z,15.50
2019-06-01T02:24:01.197Z,15.40
2019-06-01T02:25:07.966Z,15.40
2019-06-01T02:26:13.485Z,15.40
2019-06-01T02:27:19.705Z,15.40
2019-06-01T02:28:25.479Z,15.40
2019-06-01T02:29:31.433Z,15.40
2019-06-01T02:30:36.888Z,15.40
2019-06-01T02:31:43.068Z,15.30
2019-06-01T02:32:48.155Z,15.30
2019-06-01T02:33:56.139Z,15.30
2019-06-01T02:35:02.581Z,15.30
2019-06-01T02:36:08.552Z,15.30
2019-06-01T02:37:13.744Z,15.30
2019-06-01T02:38:19.753Z,15.20
2019-06-01T02:39:25.252Z,15.20
2019-06-01T02:40:32.797Z,15.30
2019-06-01T02:41:38.107Z,15.20
2019-06-01T02:42:43.973Z,15.20
2019-06-01T02:43:49.657Z,15.20
2019-06-01T02:44:57.367Z,15.20
2019-06-01T02:46:04.980Z,15.20
2019-06-01T02:47:10.879Z,15.20
2019-06-01T02:48:16.338Z,15.10
2019-06-01T02:49:22.367Z,15.10
2019-06-01T02:50:27.651Z,15.10
2019-06-01T02:51:33.597Z,15.10
2019-06-01T02:52:38.691Z,15.10
2019-06-01T02:53:44.555Z,15.10
2019-06-01T02:54:50.031Z,15.10
2019-06-01T02:55:55.920Z,15.10
2019-06-01T02:57:02.132Z,15.10
2019-06-01T02:58:08.450Z,15.00
2019-06-01T02:59:13.785Z,15.00
2019-06-01T03:00:30.078Z,15.00
2019-06-01T03:01:38.405Z,15.00
2019-06-01T03:02:53.199Z,15.10
2019-06-01T03:03:59.556Z,15.00
2019-06-01T03:05:07.571Z,15.10
2019-06-01T03:06:16.980Z,15.00
2019-06-01T03:07:23.517Z,15.00
2019-06-01T03:08:30.032Z,15.00
2019-06-01T03:09:38.032Z,15.00
2019-06-01T03:10:44.190Z,15.00
2019-06-01T03:11:53.657Z,15.00
2019-06-01T03:13:02.119Z,14.90
2019-06-01T03:14:12.134Z,14.90
2019-06-01T03:15:18.304Z,14.90
2019-06-01T03:16:28.003Z,14.90
2019-06-01T03:17:34.725Z,14.90
2019-06-01T03:18:44.116Z,14.90
2019-06-01T03:19:52.702Z,14.90
2019-06-01T03:21:01.660Z,14.90
2019-06-01T03:22:09.935Z,14.90
2019-06-01T03:23:20.771Z,14.90
2019-06-01T03:24:26.855Z,14.80
2019-06-01T03:25:34.008Z,14.80
2019-06-01T03:26:45.114Z,14.80
2019-06-01T03:27:54.880Z,14.80
2019-06-01T03:29:03.600Z,14.80
2019-06-01T03:30:15.264Z,14.80
2019-06-01T03:31:19.585Z,14.80
2019-06-01T03:32:36.373Z,14.80
2019-06-01T03:33:32.780Z,14.80
2019-06-01T03:34:38.992Z,14.80
2019-06-01T03:35:44.575Z,14.80
2019-06-01T03:36:51.372Z,14.80
2019-06-01T03:37:56.489Z,14.70
2019-06-01T03:39:04.016Z,14.70
2019-06-01T03:40:19.803Z,14.70
2019-06-01T03:41:17.577Z,14.70
2019-06-01T03:42:23.497Z,14.70
2019-06-01T03:43:30.198Z,14.70
2019-06-01T03:44:35.296Z,14.70
2019-06-01T03:45:41.606Z,14.70
2019-06-01T03:46:46.831Z,14.70
2019-06-01T03:47:52.888Z,14.70
2019-06-01T03:48:58.059Z,14.70
2019-06-01T03:50:04.815Z,14.70
2019-06-01T03:51:10.378Z,14.60
2019-06-01T03:52:16.546Z,14.60
2019-06-01T03:53:21.712Z,14.70
2019-06-01T03:54:27.472Z,14.60
2019-06-01T03:55:32.665Z,14.60
2019-06-01T03:56:38.582Z,14.60
2019-06-01T03:57:43.908Z,14.60
2019-06-01T03:58:50.454Z,14.60
2019-06-01T03:59:55.672Z,14.60
2019-06-01T04:01:03.037Z,14.60
2019-06-01T04:02:09.196Z,14.50
2019-06-01T04:03:15.515Z,14.50
2019-06-01T04:04:20.635Z,14.50
2019-06-01T04:05:26.926Z,14.50
2019-06-01T04:06:32.611Z,14.50
2019-06-01T04:07:39.120Z,14.50
2019-06-01T04:08:44.618Z,14.50
2019-06-01T04:09:50.417Z,14.50
2019-06-01T04:10:55.511Z,14.50
2019-06-01T04:12:01.495Z,14.50
2019-06-01T04:13:07.542Z,14.40
2019-06-01T04:14:13.446Z,14.50
2019-06-01T04:15:19.537Z,14.50
2019-06-01T04:16:25.743Z,14.40
2019-06-01T04:17:32.905Z,14.50
2019-06-01T04:18:38.788Z,14.50
2019-06-01T04:19:44.373Z,14.50
2019-06-01T04:20:51.295Z,14.50
2019-06-01T04:21:57.199Z,14.50
2019-06-01T04:23:04.558Z,14.50
2019-06-01T04:24:10.257Z,14.50
2019-06-01T04:25:16.615Z,14.50
2019-06-01T04:26:22.248Z,14.50
2019-06-01T04:27:28.042Z,14.50
2019-06-01T04:28:33.559Z,14.50
2019-06-01T04:29:39.514Z,14.50
2019-06-01T04:30:44.967Z,14.50
2019-06-01T04:31:51.028Z,14.60
2019-06-01T04:32:56.083Z,14.50
2019-06-01T04:34:02.502Z,14.60
2019-06-01T04:35:08.914Z,14.60
2019-06-01T04:36:15.103Z,14.60
2019-06-01T04:37:20.118Z,14.60
2019-06-01T04:38:26.265Z,14.60
2019-06-01T04:39:31.792Z,14.60
2019-06-01T04:40:37.760Z,14.60
2019-06-01T04:41:43.409Z,14.60
2019-06-01T04:42:50.279Z,14.60
2019-06-01T04:43:56.516Z,14.60
2019-06-01T04:45:04.369Z,14.70
2019-06-01T04:46:10.321Z,14.70
2019-06-01T04:47:16.886Z,14.70
2019-06-01T04:48:21.977Z,14.70
2019-06-01T04:49:28.258Z,14.70
2019-06-01T04:50:33.725Z,14.70
2019-06-01T04:51:39.538Z,14.70
2019-06-01T04:52:44.541Z,14.70
2019-06-01T04:53:50.410Z,14.70
2019-06-01T04:54:55.639Z,14.80
2019-06-01T04:56:01.820Z,14.70
2019-06-01T04:57:06.894Z,14.70
2019-06-01T04:58:13.136Z,14.70
2019-06-01T04:59:18.515Z,14.70
2019-06-01T05:00:27.833Z,14.80
2019-06-01T05:01:31.478Z,14.80
2019-06-01T05:02:37.618Z,14.80
2019-06-01T05:03:42.860Z,14.80
2019-06-01T05:04:48.658Z,14.80
2019-06-01T05:05:54.533Z,14.90
2019-06-01T05:07:00.981Z,14.90
2019-06-01T05:08:07.182Z,14.90
2019-06-01T05:09:13.459Z,14.90
2019-06-01T05:10:19.063Z,15.00
2019-06-01T05:11:25.284Z,15.00
2019-06-01T05:12:30.686Z,15.00
2019-06-01T05:13:37.595Z,15.10
2019-06-01T05:14:42.762Z,15.10
2019-06-01T05:15:48.880Z,15.10
2019-06-01T05:16:54.071Z,15.20
2019-06-01T05:18:00.011Z,15.20
2019-06-01T05:19:06.074Z,15.20
2019-06-01T05:20:14.753Z,15.20
2019-06-01T05:21:19.931Z,15.30
2019-06-01T05:22:25.838Z,15.30
2019-06-01T05:23:31.014Z,15.30
2019-06-01T05:24:37.189Z,15.40
2019-06-01T05:25:42.290Z,15.40
2019-06-01T05:26:52.819Z,15.40
2019-06-01T05:27:58.429Z,15.50
2019-06-01T05:29:04.281Z,15.50
2019-06-01T05:30:09.782Z,15.50
2019-06-01T05:31:24.707Z,15.60
2019-06-01T05:32:23.177Z,15.60
2019-06-01T05:33:37.029Z,15.70
2019-06-01T05:34:36.017Z,15.70
2019-06-01T05:35:42.792Z,15.70
2019-06-01T05:36:48.077Z,15.80
2019-06-01T05:37:54.239Z,15.80
2019-06-01T05:38:59.242Z,15.80
2019-06-01T05:40:05.462Z,15.90
2019-06-01T05:41:11.934Z,15.90
2019-06-01T05:42:18.977Z,16.00
2019-06-01T05:43:24.656Z,16.00
2019-06-01T05:44:30.941Z,16.10
2019-06-01T05:45:36.051Z,16.10
2019-06-01T05:46:42.216Z,16.10
2019-06-01T05:47:47.933Z,16.20
2019-06-01T05:48:54.570Z,16.20
2019-06-01T05:49:59.658Z,16.20
2019-06-01T05:51:06.333Z,16.30
2019-06-01T05:52:12.412Z,16.30
2019-06-01T05:53:19.968Z,16.40
2019-06-01T05:54:25.707Z,16.40
2019-06-01T05:55:31.661Z,16.50
2019-06-01T05:56:37.204Z,16.50
2019-06-01T05:57:43.528Z,16.60
2019-06-01T05:58:48.917Z,16.60
2019-06-01T05:59:54.787Z,16.60
2019-06-01T06:00:59.936Z,16.70
2019-06-01T06:02:05.901Z,16.70
2019-06-01T06:03:14.929Z,16.80
2019-06-01T06:04:19.816Z,16.80
2019-06-01T06:05:25.243Z,16.90
2019-06-01T06:06:31.050Z,16.90
2019-06-01T06:07:36.491Z,17.00
2019-06-01T06:08:42.314Z,17.00
2019-06-01T06:09:48.140Z,17.10
2019-06-01T06:10:54.405Z,17.10
2019-06-01T06:11:59.844Z,17.20
2019-06-01T06:13:05.836Z,17.20
2019-06-01T06:14:11.554Z,17.30
2019-06-01T06:15:17.937Z,17.30
2019-06-01T06:16:23.337Z,17.40
2019-06-01T06:17:29.220Z,17.40
2019-06-01T06:18:34.639Z,17.50
2019-06-01T06:19:40.749Z,17.50
2019-06-01T06:20:47.087Z,17.60
2019-06-01T06:21:53.039Z,17.60
2019-06-01T06:22:58.562Z,17.70
2019-06-01T06:24:04.452Z,17.70
2019-06-01T06:25:09.629Z,17.80
2019-06-01T06:26:17.272Z,17.80
2019-06-01T06:27:23.085Z,17.90
2019-06-01T06:28:29.203Z,17.90
2019-06-01T06:29:34.227Z,18.00
2019-06-01T06:30:40.567Z,18.00
2019-06-01T06:31:46.070Z,18.10
2019-06-01T06:32:52.301Z,18.10
2019-06-01T06:33:57.476Z,18.20
2019-06-01T06:35:03.956Z,18.20
2019-06-01T06:36:09.209Z,18.30
2019-06-01T06:37:15.640Z,18.40
2019-06-01T06:38:21.926Z,18.40
2019-06-01T06:39:28.197Z,18.50
2019-06-01T06:40:33.626Z,18.50
2019-06-01T06:41:40.530Z,18.60
2019-06-01T06:42:45.662Z,18.60
2019-06-01T06:43:51.650Z,18.70
2019-06-01T06:44:57.098Z,18.70
2019-06-01T06:46:03.741Z,18.70
2019-06-01T06:47:09.119Z,18.80
2019-06-01T06:48:15.432Z,18.90
2019-06-01T06:49:21.401Z,18.90
2019-06-01T06:50:27.608Z,19.00
2019-06-01T06:51:32.961Z,19.10
2019-06-01T06:52:39.077Z,19.10
2019-06-01T06:53:44.435Z,19.20
2019-06-01T06:54:50.491Z,19.30
2019-06-01T06:55:55.971Z,19.40
2019-06-01T06:57:02.182Z,19.40
2019-06-01T06:58:07.300Z,19.50
2019-06-01T06:59:13.182Z,19.50
2019-06-01T07:00:18.580Z,19.60
2019-06-01T07:01:24.863Z,19.60
2019-06-01T07:02:30.155Z,19.70
2019-06-01T07:03:36.061Z,19.80
2019-06-01T07:04:41.519Z,19.80
2019-06-01T07:05:47.486Z,19.90
2019-06-01T07:06:52.655Z,20.00
2019-06-01T07:07:58.548Z,20.00
2019-06-01T07:09:05.887Z,20.10
2019-06-01T07:10:12.167Z,20.20
2019-06-01T07:11:19.051Z,20.20
2019-06-01T07:12:25.443Z,20.30
2019-06-01T07:13:31.547Z,20.40
2019-06-01T07:14:38.078Z,20.50
2019-06-01T07:15:43.241Z,20.60
2019-06-01T07:16:49.117Z,20.60
2019-06-01T07:17:54.161Z,20.70
2019-06-01T07:19:00.332Z,20.70
2019-06-01T07:20:05.928Z,20.80
2019-06-01T07:21:12.046Z,20.90
2019-06-01T07:22:17.387Z,20.90
2019-06-01T07:23:23.939Z,21.00
2019-06-01T07:24:28.903Z,21.10
2019-06-01T07:25:35.198Z,21.10
2019-06-01T07:26:40.710Z,21.20
2019-06-01T07:27:46.725Z,21.30
2019-06-01T07:28:51.916Z,21.30
2019-06-01T07:29:57.769Z,21.40
2019-06-01T07:31:03.119Z,21.50
2019-06-01T07:32:09.256Z,21.60
2019-06-01T07:33:14.582Z,21.60
2019-06-01T07:34:35.806Z,21.70
2019-06-01T07:35:28.454Z,21.70
2019-06-01T07:36:34.280Z,21.80
2019-06-01T07:37:39.554Z,21.90
2019-06-01T07:38:45.466Z,21.90
2019-06-01T07:39:50.724Z,22.00
2019-06-01T07:40:56.944Z,22.00
2019-06-01T07:42:02.047Z,22.10
2019-06-01T07:43:07.923Z,22.20
2019-06-01T07:44:13.399Z,22.30
2019-06-01T07:45:20.732Z,22.30
2019-06-01T07:46:26.911Z,22.40
2019-06-01T07:47:34.053Z,22.50
2019-06-01T07:48:39.588Z,22.60
2019-06-01T07:49:45.659Z,22.60
2019-06-01T07:50:51.472Z,22.70
2019-06-01T07:51:57.824Z,22.70
2019-06-01T07:53:03.060Z,22.80
2019-06-01T07:54:09.286Z,22.90
2019-06-01T07:55:14.531Z,23.00
2019-06-01T07:56:20.822Z,23.00
2019-06-01T07:57:25.915Z,23.10
2019-06-01T07:58:32.945Z,23.20
2019-06-01T07:59:38.897Z,23.20
2019-06-01T08:00:45.232Z,23.30
2019-06-01T08:01:50.274Z,23.40
2019-06-01T08:02:56.736Z,23.50
2019-06-01T08:04:02.404Z,23.50
2019-06-01T08:05:09.408Z,23.60
2019-06-01T08:06:14.566Z,23.60
2019-06-01T08:07:22.902Z,23.70
2019-06-01T08:08:29.456Z,23.80
2019-06-01T08:09:35.966Z,23.90
2019-06-01T08:10:41.402Z,23.90
2019-06-01T08:11:47.605Z,24.00
2019-06-01T08:12:52.696Z,24.00
2019-06-01T08:13:58.866Z,24.10
2019-06-01T08:15:04.574Z,24.20
2019-06-01T08:16:10.815Z,24.20
2019-06-01T08:17:16.248Z,24.30
2019-06-01T08:18:22.369Z,24.30
2019-06-01T08:19:30.016Z,24.40
2019-06-01T08:20:36.276Z,24.40
2019-06-01T08:21:41.265Z,24.50
2019-06-01T08:22:47.171Z,24.50
2019-06-01T08:23:52.387Z,24.50
2019-06-01T08:24:58.353Z,24.60
2019-06-01T08:26:03.952Z,24.60
2019-06-01T08:27:09.848Z,24.70
2019-06-01T08:28:15.621Z,24.70
2019-06-01T08:29:22.618Z,24.80
2019-06-01T08:30:28.650Z,24.80
2019-06-01T08:31:34.457Z,24.90
2019-06-01T08:32:39.573Z,24.90
2019-06-01T08:33:45.714Z,25.00
2019-06-01T08:35:04.831Z,25.00
2019-06-01T08:35:59.130Z,25.10
2019-06-01T08:37:05.268Z,25.10
2019-06-01T08:38:11.424Z,25.20
2019-06-01T08:39:16.607Z,25.30
2019-06-01T08:40:23.313Z,25.30
2019-06-01T08:41:29.846Z,25.30
2019-06-01T08:42:35.909Z,25.40
2019-06-01T08:43:41.461Z,25.50
2019-06-01T08:44:47.762Z,25.50
2019-06-01T08:45:53.358Z,25.50
2019-06-01T08:46:59.568Z,25.60
2019-06-01T08:48:05.110Z,25.70
2019-06-01T08:49:11.073Z,25.70
2019-06-01T08:50:16.843Z,25.70
2019-06-01T08:51:23.975Z,25.80
2019-06-01T08:52:30.377Z,25.90
2019-06-01T08:53:36.623Z,26.00
2019-06-01T08:54:41.734Z,26.00
2019-06-01T08:55:47.805Z,26.10
2019-06-01T08:56:52.919Z,26.10
2019-06-01T08:57:59.028Z,26.20
2019-06-01T08:59:04.144Z,26.20
2019-06-01T09:00:10.915Z,26.30
2019-06-01T09:01:16.003Z,26.30
2019-06-01T09:02:22.307Z,26.40
2019-06-01T09:03:27.750Z,26.40
2019-06-01T09:04:34.922Z,26.50
2019-06-01T09:05:40.162Z,26.50
2019-06-01T09:06:46.117Z,26.60
2019-06-01T09:07:51.226Z,26.60
2019-06-01T09:08:57.094Z,26.60
2019-06-01T09:10:02.272Z,26.70
2019-06-01T09:11:08.164Z,26.70
2019-06-01T09:12:13.370Z,26.80
2019-06-01T09:13:20.003Z,26.80
2019-06-01T09:14:25.222Z,26.90
2019-06-01T09:15:33.720Z,26.90
2019-06-01T09:16:38.869Z,27.00
2019-06-01T09:17:45.249Z,27.00
2019-06-01T09:18:50.757Z,27.00
2019-06-01T09:19:56.674Z,27.10
2019-06-01T09:21:01.890Z,27.10
2019-06-01T09:22:08.373Z,27.20
2019-06-01T09:23:14.394Z,27.20
2019-06-01T09:24:20.568Z,27.20
2019-06-01T09:25:25.707Z,27.30
2019-06-01T09:26:32.066Z,27.30
2019-06-01T09:27:37.236Z,27.30
2019-06-01T09:28:43.660Z,27.40
2019-06-01T09:29:49.153Z,27.40
2019-06-01T09:30:55.874Z,27.40
2019-06-01T09:32:01.411Z,27.50
2019-06-01T09:33:07.368Z,27.50
2019-06-01T09:34:12.589Z,27.50
2019-06-01T09:35:18.992Z,27.50
2019-06-01T09:36:24.430Z,27.60
2019-06-01T09:37:32.475Z,27.60
2019-06-01T09:38:38.227Z,27.60
2019-06-01T09:39:44.087Z,27.60
2019-06-01T09:40:49.381Z,27.70
2019-06-01T09:41:56.359Z,27.70
2019-06-01T09:43:01.592Z,27.80
2019-06-01T09:44:08.050Z,27.80
2019-06-01T09:45:13.257Z,27.80
2019-06-01T09:46:19.228Z,27.90
2019-06-01T09:47:24.669Z,27.90
2019-06-01T09:48:31.450Z,27.90
2019-06-01T09:49:38.042Z,27.90
2019-06-01T09:50:44.165Z,28.00
2019-06-01T09:51:49.356Z,28.00
2019-06-01T09:52:55.503Z,28.00
2019-06-01T09:54:00.709Z,28.00
2019-06-01T09:55:07.566Z,28.10
2019-06-01T09:56:12.722Z,28.10
2019-06-01T09:57:18.873Z,28.10
2019-06-01T09:58:24.044Z,28.10
2019-06-01T09:59:30.030Z,28.10
2019-06-01T10:00:40.120Z,28.10
2019-06-01T10:01:43.373Z,28.20
2019-06-01T10:02:48.552Z,28.10
2019-06-01T10:03:55.418Z,28.20
2019-06-01T10:05:00.812Z,28.20
2019-06-01T10:06:06.927Z,28.30
2019-06-01T10:07:12.404Z,28.30
2019-06-01T10:08:18.314Z,28.30
2019-06-01T10:09:23.411Z,28.30
2019-06-01T10:10:29.850Z,28.40
2019-06-01T10:11:35.982Z,28.40
2019-06-01T10:12:42.305Z,28.40
2019-06-01T10:13:47.770Z,28.40
2019-06-01T10:14:54.356Z,28.50
2019-06-01T10:15:59.755Z,28.50
2019-06-01T10:17:05.926Z,28.50
2019-06-01T10:18:11.121Z,28.50
2019-06-01T10:19:16.907Z,28.50
2019-06-01T10:20:22.149Z,28.60
2019-06-01T10:21:28.325Z,28.60
2019-06-01T10:22:34.994Z,28.60
2019-06-01T10:23:42.602Z,28.60
2019-06-01T10:24:47.841Z,28.70
2019-06-01T10:25:53.729Z,28.70
2019-06-01T10:26:58.923Z,28.70
2019-06-01T10:28:04.888Z,28.80
2019-06-01T10:29:09.917Z,28.80
2019-06-01T10:30:16.567Z,28.80
2019-06-01T10:31:21.672Z,28.80
2019-06-01T10:32:27.498Z,28.90
2019-06-01T10:33:33.098Z,28.90
2019-06-01T10:34:39.906Z,28.90
2019-06-01T10:35:44.984Z,29.00
2019-06-01T10:36:51.176Z,29.00
2019-06-01T10:37:56.350Z,29.10
2019-06-01T10:39:02.171Z,29.10
2019-06-01T10:40:07.908Z,29.10
2019-06-01T10:41:13.824Z,29.10
2019-06-01T10:42:19.017Z,29.20
2019-06-01T10:43:25.149Z,29.20
2019-06-01T10:44:31.565Z,29.20
2019-06-01T10:45:37.831Z,29.20
2019-06-01T10:46:43.529Z,29.30
2019-06-01T10:47:49.423Z,29.30
2019-06-01T10:48:54.871Z,29.40
2019-06-01T10:50:00.783Z,29.40
2019-06-01T10:51:06.055Z,29.40
2019-06-01T10:52:12.296Z,29.40
2019-06-01T10:53:17.410Z,29.50
2019-06-01T10:54:23.438Z,29.50
2019-06-01T10:55:28.908Z,29.50
2019-06-01T10:56:36.220Z,29.60
2019-06-01T10:57:42.806Z,29.60
2019-06-01T10:58:59.187Z,29.60
2019-06-01T10:59:56.064Z,29.70
2019-06-01T11:01:02.200Z,29.70
2019-06-01T11:02:07.712Z,29.70
2019-06-01T11:03:13.725Z,29.80
2019-06-01T11:04:19.451Z,29.80
2019-06-01T11:05:25.669Z,29.80
2019-06-01T11:06:38.865Z,29.90
2019-06-01T11:07:39.074Z,29.90
2019-06-01T11:08:44.712Z,30.00
2019-06-01T11:09:51.041Z,30.00
2019-06-01T11:10:56.815Z,30.00
2019-06-01T11:12:03.139Z,30.00
2019-06-01T11:13:08.325Z,30.10
2019-06-01T11:14:14.553Z,30.10
2019-06-01T11:15:19.732Z,30.10
2019-06-01T11:16:25.647Z,30.20
2019-06-01T11:17:30.882Z,30.20
2019-06-01T11:18:37.506Z,30.30
2019-06-01T11:19:43.719Z,30.30
2019-06-01T11:20:50.090Z,30.30
2019-06-01T11:21:55.511Z,30.40
2019-06-01T11:23:01.839Z,30.40
2019-06-01T11:24:07.432Z,30.50
2019-06-01T11:25:13.634Z,30.50
2019-06-01T11:26:20.199Z,30.50
2019-06-01T11:27:26.450Z,30.50
2019-06-01T11:28:31.601Z,30.50
2019-06-01T11:29:42.911Z,30.60
2019-06-01T11:30:44.392Z,30.60
2019-06-01T11:31:50.370Z,30.60
2019-06-01T11:32:55.876Z,30.60
2019-06-01T11:34:02.063Z,30.60
2019-06-01T11:35:08.536Z,30.70
2019-06-01T11:36:14.421Z,30.70
2019-06-01T11:37:19.974Z,30.80
2019-06-01T11:38:26.217Z,30.80
2019-06-01T11:39:31.219Z,30.80
2019-06-01T11:40:38.511Z,30.80
2019-06-01T11:41:44.805Z,30.90
2019-06-01T11:42:50.658Z,30.90
2019-06-01T11:43:56.041Z,30.90
2019-06-01T11:45:01.802Z,31.00
2019-06-01T11:46:06.966Z,31.00
2019-06-01T11:47:13.099Z,31.00
2019-06-01T11:48:18.938Z,31.00
2019-06-01T11:49:25.236Z,31.10
2019-06-01T11:50:30.462Z,31.10
2019-06-01T11:51:36.946Z,31.20
2019-06-01T11:52:43.238Z,31.10
2019-06-01T11:53:49.474Z,31.20
2019-06-01T11:54:55.070Z,31.20
2019-06-01T11:56:01.512Z,31.30
2019-06-01T11:57:06.786Z,31.30
2019-06-01T11:58:13.093Z,31.30
2019-06-01T11:59:21.173Z,31.30
2019-06-01T12:00:26.829Z,31.40
2019-06-01T12:01:31.920Z,31.40
2019-06-01T12:02:37.899Z,31.50
2019-06-01T12:03:43.948Z,31.40
2019-06-01T12:04:49.902Z,31.50
2019-06-01T12:05:55.434Z,31.50
2019-06-01T12:07:17.043Z,31.60
2019-06-01T12:08:08.992Z,31.60
2019-06-01T12:09:14.946Z,31.60
2019-06-01T12:10:20.470Z,31.60
2019-06-01T12:11:26.815Z,31.70
2019-06-01T12:12:31.989Z,31.70
2019-06-01T12:13:38.152Z,31.70
2019-06-01T12:14:44.428Z,31.70
2019-06-01T12:15:50.680Z,31.70
2019-06-01T12:16:56.101Z,31.70
2019-06-01T12:18:02.232Z,31.80
2019-06-01T12:19:07.691Z,31.80
2019-06-01T12:20:13.788Z,31.90
2019-06-01T12:21:18.963Z,31.80
2019-06-01T12:22:25.077Z,31.90
2019-06-01T12:23:30.840Z,31.90
2019-06-01T12:24:36.960Z,31.90
2019-06-01T12:25:42.249Z,32.00
2019-06-01T12:26:48.111Z,31.90
2019-06-01T12:27:53.410Z,32.00
2019-06-01T12:28:59.738Z,32.00
2019-06-01T12:30:05.548Z,32.00
2019-06-01T12:31:11.429Z,32.00
2019-06-01T12:32:17.091Z,32.00
2019-06-01T12:33:23.368Z,32.00
2019-06-01T12:34:28.475Z,32.00
2019-06-01T12:35:34.285Z,32.10
2019-06-01T12:36:41.003Z,32.10
2019-06-01T12:38:04.418Z,32.10
2019-06-01T12:38:54.569Z,32.10
2019-06-01T12:40:01.102Z,32.10
2019-06-01T12:41:06.851Z,32.20
2019-06-01T12:42:13.067Z,32.20
2019-06-01T12:43:18.558Z,32.20
2019-06-01T12:44:24.836Z,32.30
2019-06-01T12:45:30.260Z,32.20
2019-06-01T12:46:36.172Z,32.30
2019-06-01T12:47:41.856Z,32.30
2019-06-01T12:48:48.425Z,32.30
2019-06-01T12:49:53.913Z,32.40
2019-06-01T12:51:00.388Z,32.30
2019-06-01T12:52:05.597Z,32.40
2019-06-01T12:53:11.788Z,32.40
2019-06-01T12:54:16.885Z,32.40
2019-06-01T12:55:22.844Z,32.40
2019-06-01T12:56:28.114Z,32.40
2019-06-01T12:57:34.350Z,32.40
2019-06-01T12:58:39.884Z,32.50
2019-06-01T12:59:47.502Z,32.50
2019-06-01T13:00:52.872Z,32.50
2019-06-01T13:01:58.829Z,32.50
2019-06-01T13:03:07.654Z,32.60
2019-06-01T13:04:12.138Z,32.60
2019-06-01T13:05:18.570Z,32.60
2019-06-01T13:06:24.673Z,32.60
2019-06-01T13:07:29.766Z,32.60
2019-06-01T13:08:35.570Z,32.60
2019-06-01T13:09:41.952Z,32.60
2019-06-01T13:10:48.125Z,32.60
2019-06-01T13:11:53.379Z,32.70
2019-06-01T13:12:59.288Z,32.70
2019-06-01T13:14:04.685Z,32.70
2019-06-01T13:15:11.051Z,32.70
2019-06-01T13:16:16.233Z,32.70
2019-06-01T13:17:22.483Z,32.70
2019-06-01T13:18:27.900Z,32.70
2019-06-01T13:19:34.069Z,32.70
2019-06-01T13:20:43.307Z,32.70
2019-06-01T13:21:50.203Z,32.70
2019-06-01T13:22:55.976Z,32.80
2019-06-01T13:24:02.293Z,32.70
2019-06-01T13:25:09.146Z,32.70
2019-06-01T13:26:15.420Z,32.70
2019-06-01T13:27:21.020Z,32.70
2019-06-01T13:28:37.606Z,32.70
2019-06-01T13:29:34.751Z,32.70
2019-06-01T13:30:42.351Z,32.70
2019-06-01T13:31:48.320Z,32.70
2019-06-01T13:32:54.180Z,32.70
2019-06-01T13:33:59.696Z,32.70
2019-06-01T13:35:06.665Z,32.70
2019-06-01T13:36:12.174Z,32.70
2019-06-01T13:37:18.643Z,32.70
2019-06-01T13:38:23.817Z,32.70
2019-06-01T13:39:29.840Z,32.80
2019-06-01T13:40:35.490Z,32.80
2019-06-01T13:41:42.915Z,32.80
2019-06-01T13:42:49.109Z,32.90
2019-06-01T13:43:55.232Z,32.90
2019-06-01T13:45:00.400Z,32.90
2019-06-01T13:46:06.894Z,32.90
2019-06-01T13:47:12.789Z,32.90
2019-06-01T13:48:19.293Z,32.90
2019-06-01T13:49:24.999Z,32.90
2019-06-01T13:50:31.124Z,32.90
2019-06-01T13:51:36.625Z,33.00
2019-06-01T13:52:43.843Z,32.90
2019-06-01T13:53:50.461Z,32.90
2019-06-01T13:54:56.372Z,33.00
2019-06-01T13:56:01.807Z,32.90
2019-06-01T13:57:07.992Z,33.00
2019-06-01T13:58:13.595Z,33.00
2019-06-01T13:59:20.030Z,33.00
2019-06-01T14:00:30.445Z,33.00
2019-06-01T14:01:32.757Z,33.10
2019-06-01T14:02:37.934Z,33.00
2019-06-01T14:03:45.008Z,33.00
2019-06-01T14:04:50.218Z,33.00
2019-06-01T14:05:56.120Z,33.00
2019-06-01T14:07:01.794Z,33.00
2019-06-01T14:08:08.096Z,33.10
2019-06-01T14:09:13.593Z,33.10
2019-06-01T14:10:19.625Z,33.10
2019-06-01T14:11:25.204Z,33.10